createdAt,value
2019-01-29T00:00:25.312Z,27.40
2019-01-29T00:01:25.301Z,31.30
2019-01-29T00:02:25.306Z,29.50
2019-01-29T00:03:25.287Z,25.50
2019-01-29T00:04:25.276Z,26.10
2019-01-29T00:05:25.261Z,26.90
2019-01-29T00:06:25.253Z,27.00
2019-01-29T00:07:25.264Z,28.40
2019-01-29T00:08:25.232Z,28.10
2019-01-29T00:09:25.222Z,26.70
2019-01-29T00:10:25.205Z,26.90
2019-01-29T00:11:25.200Z,30.10
2019-01-29T00:12:25.214Z,26.70
2019-01-29T00:13:25.175Z,30.60
2019-01-29T00:14:25.164Z,29.80
2019-01-29T00:15:25.160Z,31.40
2019-01-29T00:16:25.144Z,32.10
2019-01-29T00:17:25.134Z,26.80
2019-01-29T00:18:25.148Z,32.20
2019-01-29T00:19:25.108Z,25.90
2019-01-29T00:20:25.100Z,29.80
2019-01-29T00:21:25.093Z,30.20
2019-01-29T00:22:33.070Z,33.00
2019-01-29T00:23:26.088Z,28.20
2019-01-29T00:24:25.109Z,35.80
2019-01-29T00:25:25.051Z,27.70
2019-01-29T00:26:25.058Z,31.40
2019-01-29T00:27:25.027Z,31.50
2019-01-29T00:28:25.022Z,34.90
2019-01-29T00:29:25.023Z,27.30
2019-01-29T00:30:24.995Z,32.60
2019-01-29T00:31:24.986Z,31.90
2019-01-29T00:32:24.994Z,29.20
2019-01-29T00:33:24.967Z,35.40
2019-01-29T00:34:24.985Z,35.40
2019-01-29T00:35:24.959Z,33.10
2019-01-29T00:36:24.936Z,28.10
2019-01-29T00:37:24.919Z,31.70
2019-01-29T00:38:24.915Z,29.40
2019-01-29T00:39:24.917Z,38.40
2019-01-29T00:40:24.888Z,33.60
2019-01-29T00:41:24.884Z,33.40
2019-01-29T00:42:24.870Z,34.30
2019-01-29T00:43:24.886Z,32.80
2019-01-29T00:44:24.843Z,29.90
2019-01-29T00:45:24.900Z,34.30
2019-01-29T00:46:24.825Z,32.50
2019-01-29T00:47:24.830Z,31.40
2019-01-29T00:48:24.807Z,30.80
2019-01-29T00:49:24.817Z,30.20
2019-01-29T00:50:24.781Z,34.90
2019-01-29T00:51:24.772Z,34.60
2019-01-29T00:52:24.757Z,43.00
2019-01-29T00:53:24.753Z,31.30
2019-01-29T00:54:24.762Z,28.20
2019-01-29T00:55:24.742Z,26.70
2019-01-29T00:56:24.724Z,28.70
2019-01-29T00:57:24.707Z,30.30
2019-01-29T00:58:24.730Z,39.80
2019-01-29T00:59:24.687Z,31.40
2019-01-29T01:00:24.706Z,34.30
2019-01-29T01:01:24.661Z,34.50
2019-01-29T01:02:24.662Z,33.10
2019-01-29T01:03:24.647Z,31.00
2019-01-29T01:04:24.646Z,28.90
2019-01-29T01:05:24.626Z,30.90
2019-01-29T01:06:24.630Z,30.00
2019-01-29T01:07:24.606Z,27.90
2019-01-29T01:08:24.593Z,31.20
2019-01-29T01:09:24.580Z,28.10
2019-01-29T01:10:24.588Z,29.50
2019-01-29T01:11:24.558Z,33.20
2019-01-29T01:12:24.548Z,38.40
2019-01-29T01:13:24.548Z,27.60
2019-01-29T01:14:24.531Z,30.60
2019-01-29T01:15:24.619Z,33.70
2019-01-29T01:16:24.502Z,32.20
2019-01-29T01:17:24.498Z,36.80
2019-01-29T01:18:24.488Z,30.60
2019-01-29T01:19:24.483Z,36.20
2019-01-29T01:20:24.492Z,33.20
2019-01-29T01:21:24.449Z,35.20
2019-01-29T01:22:24.463Z,35.10
2019-01-29T01:23:24.449Z,34.30
2019-01-29T01:24:24.423Z,37.90
2019-01-29T01:25:24.427Z,29.30
2019-01-29T01:26:24.400Z,34.50
2019-01-29T01:27:24.412Z,29.80
2019-01-29T01:28:24.382Z,29.00
2019-01-29T01:29:24.371Z,29.90
2019-01-29T01:30:24.358Z,33.30
2019-01-29T01:31:24.346Z,35.70
2019-01-29T01:32:24.386Z,27.70
2019-01-29T01:33:24.342Z,27.30
2019-01-29T01:34:24.312Z,35.00
2019-01-29T01:35:24.319Z,32.40
2019-01-29T01:36:24.290Z,34.10
2019-01-29T01:37:24.310Z,31.20
2019-01-29T01:38:24.274Z,30.90
2019-01-29T01:39:24.263Z,28.80
2019-01-29T01:40:24.255Z,33.60
2019-01-29T01:41:24.235Z,31.70
2019-01-29T01:42:24.229Z,30.50
2019-01-29T01:43:24.236Z,32.00
2019-01-29T01:44:24.204Z,32.10
2019-01-29T01:45:24.200Z,28.70
2019-01-29T01:46:24.205Z,34.90
2019-01-29T01:47:24.194Z,30.40
2019-01-29T01:48:24.181Z,30.40
2019-01-29T01:49:24.207Z,36.00
2019-01-29T01:50:24.146Z,31.50
2019-01-29T01:51:24.154Z,26.40
2019-01-29T01:52:24.127Z,31.20
2019-01-29T01:53:24.129Z,25.50
2019-01-29T01:54:24.114Z,28.50
2019-01-29T01:55:24.089Z,33.20
2019-01-29T01:56:24.095Z,31.80
2019-01-29T01:57:24.074Z,29.30
2019-01-29T01:58:24.078Z,25.90
2019-01-29T01:59:24.053Z,26.00
2019-01-29T02:00:24.042Z,26.40
2019-01-29T02:01:24.039Z,33.60
2019-01-29T02:02:24.017Z,31.70
2019-01-29T02:03:24.026Z,29.20
2019-01-29T02:04:23.998Z,34.50
2019-01-29T02:05:23.984Z,30.00
2019-01-29T02:06:23.972Z,37.40
2019-01-29T02:07:23.980Z,30.80
2019-01-29T02:08:23.955Z,33.40
2019-01-29T02:09:23.948Z,32.20
2019-01-29T02:10:23.947Z,36.90
2019-01-29T02:11:23.929Z,33.10
2019-01-29T02:12:25.561Z,37.10
2019-01-29T02:13:23.896Z,36.40
2019-01-29T02:14:23.887Z,30.70
2019-01-29T02:15:23.880Z,43.30
2019-01-29T02:16:23.864Z,37.20
2019-01-29T02:17:23.878Z,36.00
2019-01-29T02:18:23.886Z,34.50
2019-01-29T02:19:23.833Z,33.30
2019-01-29T02:20:23.821Z,30.70
2019-01-29T02:21:23.818Z,36.80
2019-01-29T02:22:23.830Z,33.20
2019-01-29T02:23:23.794Z,35.50
2019-01-29T02:24:23.785Z,37.70
2019-01-29T02:25:23.767Z,34.50
2019-01-29T02:26:23.775Z,45.90
2019-01-29T02:27:23.749Z,48.20
2019-01-29T02:28:23.754Z,47.90
2019-01-29T02:29:23.734Z,44.30
2019-01-29T02:30:23.720Z,49.00
2019-01-29T02:31:23.709Z,54.00
2019-01-29T02:32:23.727Z,49.30
2019-01-29T02:33:25.186Z,62.20
2019-01-29T02:34:23.675Z,66.50
2019-01-29T02:35:23.666Z,72.00
2019-01-29T02:36:23.661Z,73.50
2019-01-29T02:37:23.640Z,86.70
2019-01-29T02:38:23.692Z,79.20
2019-01-29T02:39:23.622Z,78.20
2019-01-29T02:40:23.614Z,91.30
2019-01-29T02:41:23.625Z,86.70
2019-01-29T02:42:23.611Z,111.40
2019-01-29T02:43:23.584Z,104.20
2019-01-29T02:44:23.573Z,87.40
2019-01-29T02:45:23.560Z,94.40
2019-01-29T02:46:23.544Z,95.40
2019-01-29T02:47:23.552Z,80.00
2019-01-29T02:48:23.526Z,83.40
2019-01-29T02:49:23.517Z,72.80
2019-01-29T02:50:23.516Z,71.90
2019-01-29T02:51:23.492Z,77.80
2019-01-29T02:52:23.504Z,68.00
2019-01-29T02:53:23.497Z,81.20
2019-01-29T02:54:23.467Z,78.30
2019-01-29T02:55:23.456Z,73.90
2019-01-29T02:56:23.445Z,41.80
2019-01-29T02:57:23.435Z,70.00
2019-01-29T02:58:23.450Z,59.40
2019-01-29T02:59:23.413Z,69.30
2019-01-29T03:00:23.408Z,9.10
2019-01-29T03:01:23.388Z,72.30
2019-01-29T03:02:23.376Z,91.70
2019-01-29T03:03:23.382Z,76.50
2019-01-29T03:04:23.356Z,82.60
2019-01-29T03:05:23.349Z,76.00
2019-01-29T03:06:23.371Z,67.70
2019-01-29T03:07:23.322Z,56.80
2019-01-29T03:08:23.324Z,40.70
2019-01-29T03:09:23.305Z,9.20
2019-01-29T03:10:23.298Z,2.60
2019-01-29T03:11:23.287Z,0.10
2019-01-29T03:12:23.295Z,0.10
2019-01-29T03:13:23.261Z,1.20
2019-01-29T03:14:23.267Z,0.10
2019-01-29T03:15:23.238Z,0.20
2019-01-29T03:16:23.230Z,0.10
2019-01-29T03:17:23.251Z,0.10
2019-01-29T03:18:23.213Z,0.10
2019-01-29T03:19:23.221Z,0.10
2019-01-29T03:20:23.201Z,0.10
2019-01-29T03:21:23.176Z,0.10
2019-01-29T03:22:23.181Z,15.60
2019-01-29T03:23:27.646Z,8.90
2019-01-29T03:24:23.147Z,36.00
2019-01-29T03:25:23.159Z,24.70
2019-01-29T03:26:23.122Z,15.60
2019-01-29T03:27:23.111Z,97.40
2019-01-29T03:28:23.102Z,87.70
2019-01-29T03:29:23.094Z,87.80
2019-01-29T03:30:23.089Z,88.00
2019-01-29T03:31:23.094Z,97.80
2019-01-29T03:32:23.063Z,98.80
2019-01-29T03:33:23.088Z,79.50
2019-01-29T03:34:23.038Z,102.10
2019-01-29T03:35:23.053Z,106.50
2019-01-29T03:36:23.017Z,102.80
2019-01-29T03:37:23.009Z,108.00
2019-01-29T03:38:23.018Z,88.60
2019-01-29T03:39:22.991Z,105.60
2019-01-29T03:40:22.976Z,88.20
2019-01-29T03:41:22.984Z,89.00
2019-01-29T03:42:22.957Z,94.40
2019-01-29T03:43:22.946Z,107.70
2019-01-29T03:44:22.936Z,86.80
2019-01-29T03:45:22.921Z,90.00
2019-01-29T03:46:22.939Z,108.10
2019-01-29T03:47:22.903Z,97.80
2019-01-29T03:48:22.890Z,89.30
2019-01-29T03:49:22.883Z,96.30
2019-01-29T03:50:22.875Z,81.60
2019-01-29T03:51:22.861Z,97.50
2019-01-29T03:52:22.866Z,126.60
2019-01-29T03:53:22.838Z,93.40
2019-01-29T03:54:22.828Z,95.60
2019-01-29T03:55:22.819Z,82.50
2019-01-29T03:56:22.806Z,93.50
2019-01-29T03:57:22.815Z,99.10
2019-01-29T03:58:22.780Z,118.60
2019-01-29T03:59:22.773Z,90.60
2019-01-29T04:00:22.763Z,100.60
2019-01-29T04:01:22.753Z,90.80
2019-01-29T04:02:22.745Z,100.00
2019-01-29T04:03:22.750Z,96.50
2019-01-29T04:04:22.726Z,116.50
2019-01-29T04:05:22.714Z,91.10
2019-01-29T04:06:22.695Z,91.70
2019-01-29T04:07:22.684Z,95.70
2019-01-29T04:08:22.695Z,92.50
2019-01-29T04:09:22.668Z,94.20
2019-01-29T04:10:22.661Z,90.50
2019-01-29T04:11:22.659Z,90.90
2019-01-29T04:12:22.638Z,92.00
2019-01-29T04:13:22.625Z,88.20
2019-01-29T04:14:22.617Z,81.60
2019-01-29T04:15:22.606Z,89.10
2019-01-29T04:16:22.624Z,97.30
2019-01-29T04:17:22.581Z,86.00
2019-01-29T04:18:22.568Z,85.20
2019-01-29T04:19:22.557Z,95.00
2019-01-29T04:20:22.570Z,97.20
2019-01-29T04:21:22.566Z,98.40
2019-01-29T04:22:22.534Z,120.40
2019-01-29T04:23:22.558Z,98.90
2019-01-29T04:24:22.515Z,99.10
2019-01-29T04:25:22.505Z,97.00
2019-01-29T04:26:22.512Z,87.60
2019-01-29T04:27:22.480Z,94.50
2019-01-29T04:28:22.467Z,82.10
2019-01-29T04:29:22.454Z,94.30
2019-01-29T04:30:22.441Z,85.60
2019-01-29T04:31:22.461Z,94.70
2019-01-29T04:32:22.440Z,91.40
2019-01-29T04:33:22.445Z,91.40
2019-01-29T04:34:22.405Z,90.30
2019-01-29T04:35:22.654Z,111.60
2019-01-29T04:36:22.382Z,90.10
2019-01-29T04:37:22.387Z,96.40
2019-01-29T04:38:22.355Z,87.10
2019-01-29T04:39:22.377Z,91.70
2019-01-29T04:40:22.342Z,88.10
2019-01-29T04:41:22.329Z,108.30
2019-01-29T04:42:22.345Z,87.30
2019-01-29T04:43:22.305Z,94.50
2019-01-29T04:44:22.298Z,111.20
2019-01-29T04:45:22.286Z,95.00
2019-01-29T04:46:22.278Z,103.30
2019-01-29T04:47:22.272Z,90.20
2019-01-29T04:48:22.310Z,97.20
2019-01-29T04:49:22.241Z,91.80
2019-01-29T04:50:22.229Z,82.50
2019-01-29T04:51:22.218Z,86.50
2019-01-29T04:52:22.210Z,90.30
2019-01-29T04:53:22.221Z,82.90
2019-01-29T04:54:22.196Z,76.30
2019-01-29T04:55:22.182Z,81.90
2019-01-29T04:56:22.170Z,81.70
2019-01-29T04:57:22.174Z,92.70
2019-01-29T04:58:22.145Z,90.90
2019-01-29T04:59:22.142Z,88.60
2019-01-29T05:00:22.131Z,99.30
2019-01-29T05:01:22.114Z,100.90
2019-01-29T05:02:22.120Z,109.80
2019-01-29T05:03:22.111Z,76.60
2019-01-29T05:04:22.083Z,79.80
2019-01-29T05:05:22.081Z,76.90
2019-01-29T05:06:22.084Z,78.70
2019-01-29T05:07:22.059Z,89.10
2019-01-29T05:08:22.044Z,77.40
2019-01-29T05:09:22.031Z,90.70
2019-01-29T05:10:22.024Z,94.00
2019-01-29T05:11:22.046Z,91.80
2019-01-29T05:12:21.998Z,76.40
2019-01-29T05:13:22.001Z,73.40
2019-01-29T05:14:21.985Z,79.60
2019-01-29T05:15:21.964Z,76.20
2019-01-29T05:16:21.958Z,80.60
2019-01-29T05:17:21.964Z,75.60
2019-01-29T05:18:21.957Z,88.20
2019-01-29T05:19:21.931Z,82.30
2019-01-29T05:20:21.922Z,82.40
2019-01-29T05:21:21.903Z,85.10
2019-01-29T05:22:21.909Z,82.70
2019-01-29T05:23:21.900Z,78.50
2019-01-29T05:24:21.880Z,70.60
2019-01-29T05:25:21.864Z,67.20
2019-01-29T05:26:21.870Z,72.90
2019-01-29T05:27:21.844Z,70.30
2019-01-29T05:28:21.849Z,76.40
2019-01-29T05:29:21.820Z,69.60
2019-01-29T05:30:21.805Z,73.70
2019-01-29T05:31:21.821Z,78.40
2019-01-29T05:32:21.789Z,82.20
2019-01-29T05:33:21.799Z,71.50
2019-01-29T05:34:21.767Z,77.00
2019-01-29T05:35:21.755Z,73.40
2019-01-29T05:36:21.743Z,74.40
2019-01-29T05:37:21.753Z,76.20
2019-01-29T05:38:21.731Z,69.90
2019-01-29T05:39:21.756Z,60.60
2019-01-29T05:40:21.706Z,73.20
2019-01-29T05:41:21.691Z,68.30
2019-01-29T05:42:21.677Z,71.90
2019-01-29T05:43:21.668Z,76.70
2019-01-29T05:44:21.659Z,73.90
2019-01-29T05:45:21.704Z,53.80
2019-01-29T05:46:21.644Z,79.50
2019-01-29T05:47:21.625Z,74.00
2019-01-29T05:48:21.639Z,64.50
2019-01-29T05:49:21.608Z,78.80
2019-01-29T05:50:21.602Z,78.10
2019-01-29T05:51:21.591Z,62.20
2019-01-29T05:52:21.577Z,78.60
2019-01-29T05:53:21.566Z,83.30
2019-01-29T05:54:21.583Z,70.40
2019-01-29T05:55:21.563Z,79.00
2019-01-29T05:56:21.532Z,83.20
2019-01-29T05:57:21.530Z,69.70
2019-01-29T05:58:21.535Z,74.90
2019-01-29T05:59:21.523Z,85.80
2019-01-29T06:00:21.501Z,65.30
2019-01-29T06:01:21.479Z,75.60
2019-01-29T06:02:21.472Z,77.00
2019-01-29T06:03:21.463Z,79.00
2019-01-29T06:04:21.470Z,81.80
2019-01-29T06:05:21.437Z,76.30
2019-01-29T06:06:21.445Z,84.40
2019-01-29T06:07:21.414Z,71.10
2019-01-29T06:08:21.431Z,85.70
2019-01-29T06:09:21.397Z,70.40
2019-01-29T06:10:21.390Z,75.40
2019-01-29T06:11:21.400Z,72.20
2019-01-29T06:12:21.368Z,75.50
2019-01-29T06:13:21.351Z,69.20
2019-01-29T06:14:21.356Z,75.20
2019-01-29T06:15:21.336Z,72.50
2019-01-29T06:16:21.346Z,89.40
2019-01-29T06:17:27.376Z,80.50
2019-01-29T06:18:22.303Z,78.60
2019-01-29T06:19:21.294Z,76.20
2019-01-29T06:20:21.278Z,65.50
2019-01-29T06:21:21.270Z,68.70
2019-01-29T06:22:21.280Z,69.10
2019-01-29T06:23:21.282Z,73.80
2019-01-29T06:24:25.915Z,89.30
2019-01-29T06:25:21.230Z,76.30
2019-01-29T06:26:21.213Z,73.70
2019-01-29T06:27:21.201Z,72.80
2019-01-29T06:28:21.197Z,83.90
2019-01-29T06:29:21.201Z,73.00
2019-01-29T06:30:21.177Z,76.00
2019-01-29T06:31:21.166Z,81.00
2019-01-29T06:32:21.154Z,79.30
2019-01-29T06:33:21.139Z,76.60
2019-01-29T06:34:21.150Z,77.60
2019-01-29T06:35:21.124Z,86.60
2019-01-29T06:36:21.111Z,78.00
2019-01-29T06:37:21.098Z,79.20
2019-01-29T06:38:21.088Z,77.40
2019-01-29T06:39:21.075Z,89.20
2019-01-29T06:40:21.087Z,77.90
2019-01-29T06:41:21.057Z,61.90
2019-01-29T06:42:21.051Z,73.50
2019-01-29T06:43:21.038Z,72.10
2019-01-29T06:44:21.043Z,67.40
2019-01-29T06:45:21.018Z,75.70
2019-01-29T06:46:21.001Z,80.40
2019-01-29T06:47:21.008Z,126.40
2019-01-29T06:48:20.981Z,74.90
2019-01-29T06:49:20.973Z,74.70
2019-01-29T06:50:20.966Z,69.70
2019-01-29T06:51:20.979Z,67.40
2019-01-29T06:52:20.941Z,59.50
2019-01-29T06:53:20.932Z,62.90
2019-01-29T06:54:22.870Z,49.10
2019-01-29T06:55:20.913Z,62.30
2019-01-29T06:56:21.021Z,60.90
2019-01-29T06:57:20.903Z,61.70
2019-01-29T06:58:20.875Z,64.20
2019-01-29T06:59:20.869Z,0.20
2019-01-29T07:00:20.858Z,0.70
2019-01-29T07:01:20.843Z,71.80
2019-01-29T07:02:20.848Z,78.40
2019-01-29T07:03:20.820Z,43.80
2019-01-29T07:04:20.811Z,61.00
2019-01-29T07:05:20.831Z,13.30
2019-01-29T07:06:20.799Z,27.10
2019-01-29T07:07:20.780Z,51.90
2019-01-29T07:08:20.839Z,48.60
2019-01-29T07:09:20.761Z,51.80
2019-01-29T07:10:20.754Z,49.80
2019-01-29T07:11:20.762Z,53.60
2019-01-29T07:12:20.747Z,43.80
2019-01-29T07:13:20.724Z,60.10
2019-01-29T07:14:20.708Z,57.10
2019-01-29T07:15:20.727Z,44.50
2019-01-29T07:16:20.706Z,50.10
2019-01-29T07:17:20.696Z,40.00
2019-01-29T07:18:20.671Z,44.20
2019-01-29T07:19:20.660Z,42.80
2019-01-29T07:20:20.666Z,49.10
2019-01-29T07:21:20.654Z,50.90
2019-01-29T07:22:20.619Z,40.60
2019-01-29T07:23:20.641Z,43.50
2019-01-29T07:24:20.626Z,58.00
2019-01-29T07:25:20.589Z,46.10
2019-01-29T07:26:20.576Z,50.50
2019-01-29T07:27:20.569Z,39.30
2019-01-29T07:28:20.577Z,56.00
2019-01-29T07:29:20.552Z,50.10
2019-01-29T07:30:20.558Z,44.10
2019-01-29T07:31:20.540Z,42.80
2019-01-29T07:32:20.523Z,55.70
2019-01-29T07:33:20.534Z,53.40
2019-01-29T07:34:20.492Z,50.20
2019-01-29T07:35:20.488Z,48.90
2019-01-29T07:36:20.497Z,42.20
2019-01-29T07:37:22.112Z,39.50
2019-01-29T07:38:20.455Z,26.50
2019-01-29T07:39:20.454Z,43.20
2019-01-29T07:40:20.457Z,48.50
2019-01-29T07:41:20.445Z,51.20
2019-01-29T07:42:20.414Z,44.90
2019-01-29T07:43:20.402Z,46.50
2019-01-29T07:44:20.413Z,50.90
2019-01-29T07:45:20.377Z,65.10
2019-01-29T07:46:20.364Z,42.20
2019-01-29T07:47:20.354Z,53.30
2019-01-29T07:48:20.347Z,51.40
2019-01-29T07:49:20.346Z,45.70
2019-01-29T07:50:20.347Z,49.40
2019-01-29T07:51:20.320Z,50.60
2019-01-29T07:52:20.305Z,46.80
2019-01-29T07:53:20.332Z,53.80
2019-01-29T07:54:20.279Z,55.00
2019-01-29T07:55:20.296Z,57.90
2019-01-29T07:56:20.263Z,55.00
2019-01-29T07:57:20.258Z,57.30
2019-01-29T07:58:20.236Z,55.60
2019-01-29T07:59:32.457Z,51.80
2019-01-29T08:00:21.238Z,52.10
2019-01-29T08:01:20.210Z,38.60
2019-01-29T08:02:20.201Z,59.50
2019-01-29T08:03:20.194Z,50.70
2019-01-29T08:04:20.178Z,48.60
2019-01-29T08:05:20.748Z,64.10
2019-01-29T08:06:20.178Z,54.10
2019-01-29T08:07:20.142Z,43.80
2019-01-29T08:08:20.134Z,53.40
2019-01-29T08:09:20.142Z,49.50
2019-01-29T08:10:20.116Z,61.20
2019-01-29T08:11:20.116Z,59.40
2019-01-29T08:12:20.091Z,53.00
2019-01-29T08:13:20.085Z,53.70
2019-01-29T08:14:20.094Z,71.50
2019-01-29T08:15:20.062Z,66.50
2019-01-29T08:16:20.068Z,54.50
2019-01-29T08:17:20.038Z,64.50
2019-01-29T08:18:20.635Z,55.20
2019-01-29T08:19:20.013Z,66.40
2019-01-29T08:20:20.008Z,70.60
2019-01-29T08:21:20.021Z,85.80
2019-01-29T08:22:19.988Z,63.10
2019-01-29T08:23:19.980Z,69.00
2019-01-29T08:24:19.967Z,68.50
2019-01-29T08:25:19.951Z,65.80
2019-01-29T08:26:19.945Z,80.70
2019-01-29T08:27:19.952Z,66.20
2019-01-29T08:28:19.923Z,64.10
2019-01-29T08:29:19.910Z,61.80
2019-01-29T08:30:19.902Z,52.00
2019-01-29T08:31:19.892Z,51.90
2019-01-29T08:32:19.901Z,54.00
2019-01-29T08:33:19.921Z,51.50
2019-01-29T08:34:19.877Z,53.20
2019-01-29T08:35:19.862Z,55.70
2019-01-29T08:36:19.840Z,60.30
2019-01-29T08:37:19.826Z,68.30
2019-01-29T08:38:19.821Z,66.00
2019-01-29T08:39:19.827Z,65.30
2019-01-29T08:40:19.829Z,63.10
2019-01-29T08:41:19.785Z,66.30
2019-01-29T08:42:19.776Z,57.40
2019-01-29T08:43:19.761Z,59.20
2019-01-29T08:44:19.755Z,67.60
2019-01-29T08:45:19.758Z,70.40
2019-01-29T08:46:19.740Z,84.00
2019-01-29T08:47:19.724Z,99.10
2019-01-29T08:48:19.709Z,77.40
2019-01-29T08:49:19.714Z,80.20
2019-01-29T08:50:19.701Z,65.20
2019-01-29T08:51:19.673Z,78.40
2019-01-29T08:52:19.667Z,75.40
2019-01-29T08:53:19.656Z,59.30
2019-01-29T08:54:19.689Z,61.70
2019-01-29T08:55:19.637Z,64.30
2019-01-29T08:56:19.627Z,69.50
2019-01-29T08:57:19.614Z,70.00
2019-01-29T08:58:26.960Z,77.90
2019-01-29T08:59:20.632Z,67.40
2019-01-29T09:00:19.600Z,62.30
2019-01-29T09:01:19.593Z,57.50
2019-01-29T09:02:19.557Z,63.60
2019-01-29T09:03:19.546Z,58.90
2019-01-29T09:04:19.537Z,53.80
2019-01-29T09:05:19.556Z,72.00
2019-01-29T09:06:19.522Z,63.70
2019-01-29T09:07:19.511Z,61.60
2019-01-29T09:08:19.501Z,73.20
2019-01-29T09:09:19.486Z,58.40
2019-01-29T09:10:19.496Z,66.50
2019-01-29T09:11:19.462Z,69.50
2019-01-29T09:12:19.502Z,51.10
2019-01-29T09:13:19.465Z,53.90
2019-01-29T09:14:19.437Z,49.90
2019-01-29T09:15:19.466Z,57.10
2019-01-29T09:16:19.413Z,60.40
2019-01-29T09:17:19.402Z,73.30
2019-01-29T09:18:19.397Z,57.70
2019-01-29T09:19:19.388Z,64.30
2019-01-29T09:20:19.376Z,53.80
2019-01-29T09:21:19.405Z,52.30
2019-01-29T09:22:19.375Z,58.60
2019-01-29T09:23:19.357Z,48.80
2019-01-29T09:24:19.330Z,56.20
2019-01-29T09:25:22.412Z,48.90
2019-01-29T09:26:19.316Z,46.10
2019-01-29T09:27:19.318Z,37.60
2019-01-29T09:28:19.352Z,36.80
2019-01-29T09:29:19.275Z,48.30
2019-01-29T09:30:19.263Z,37.40
2019-01-29T09:31:19.259Z,34.50
2019-01-29T09:32:19.263Z,34.70
2019-01-29T09:33:19.283Z,34.40
2019-01-29T09:34:19.224Z,38.70
2019-01-29T09:35:19.209Z,36.60
2019-01-29T09:36:19.206Z,45.60
2019-01-29T09:37:19.193Z,37.30
2019-01-29T09:38:19.185Z,32.50
2019-01-29T09:39:19.192Z,33.40
2019-01-29T09:40:19.169Z,34.10
2019-01-29T09:41:19.149Z,32.90
2019-01-29T09:42:19.189Z,35.10
2019-01-29T09:43:19.157Z,36.70
2019-01-29T09:44:19.143Z,32.70
2019-01-29T09:45:19.110Z,30.10
2019-01-29T09:46:19.101Z,31.20
2019-01-29T09:47:19.085Z,32.10
2019-01-29T09:48:19.075Z,40.20
2019-01-29T09:49:19.091Z,39.40
2019-01-29T09:50:19.059Z,35.70
2019-01-29T09:51:19.053Z,36.20
2019-01-29T09:52:19.035Z,32.30
2019-01-29T09:53:19.022Z,32.30
2019-01-29T09:54:19.010Z,36.00
2019-01-29T09:55:19.018Z,28.10
2019-01-29T09:56:18.991Z,30.70
2019-01-29T09:57:18.988Z,24.10
2019-01-29T09:58:18.974Z,30.70
2019-01-29T09:59:18.982Z,24.10
2019-01-29T10:00:18.972Z,32.30
2019-01-29T10:01:18.957Z,25.40
2019-01-29T10:02:18.928Z,26.50
2019-01-29T10:03:18.923Z,29.90
2019-01-29T10:04:18.928Z,27.50
2019-01-29T10:05:18.912Z,29.70
2019-01-29T10:06:18.911Z,31.20
2019-01-29T10:07:18.879Z,30.10
2019-01-29T10:08:18.865Z,25.60
2019-01-29T10:09:18.873Z,32.50
2019-01-29T10:10:18.854Z,27.10
2019-01-29T10:11:18.837Z,32.00
2019-01-29T10:12:18.843Z,31.40
2019-01-29T10:13:18.812Z,35.40
2019-01-29T10:14:18.808Z,29.40
2019-01-29T10:15:18.788Z,30.60
2019-01-29T10:16:18.781Z,33.30
2019-01-29T10:17:18.789Z,34.00
2019-01-29T10:18:18.761Z,31.60
2019-01-29T10:19:18.763Z,37.60
2019-01-29T10:20:18.740Z,33.50
2019-01-29T10:21:18.757Z,34.40
2019-01-29T10:22:18.723Z,31.20
2019-01-29T10:23:18.709Z,34.20
2019-01-29T10:24:18.705Z,33.60
2019-01-29T10:25:18.687Z,30.20
2019-01-29T10:26:18.672Z,34.20
2019-01-29T10:27:18.686Z,28.10
2019-01-29T10:28:18.653Z,22.70
2019-01-29T10:29:18.641Z,23.30
2019-01-29T10:30:18.655Z,27.60
2019-01-29T10:31:18.638Z,24.10
2019-01-29T10:32:18.640Z,26.90
2019-01-29T10:33:18.604Z,26.70
2019-01-29T10:34:18.584Z,23.80
2019-01-29T10:35:18.581Z,24.50
2019-01-29T10:36:18.568Z,25.20
2019-01-29T10:37:18.560Z,21.40
2019-01-29T10:38:18.559Z,29.90
2019-01-29T10:39:18.530Z,26.60
2019-01-29T10:40:18.541Z,32.40
2019-01-29T10:41:18.514Z,27.60
2019-01-29T10:42:18.503Z,29.50
2019-01-29T10:43:18.512Z,29.40
2019-01-29T10:44:18.480Z,25.40
2019-01-29T10:45:18.495Z,28.30
2019-01-29T10:46:18.461Z,26.80
2019-01-29T10:47:18.454Z,28.50
2019-01-29T10:48:18.436Z,26.40
2019-01-29T10:49:18.440Z,22.80
2019-01-29T10:50:18.437Z,26.50
2019-01-29T10:51:18.404Z,27.00
2019-01-29T10:52:18.392Z,25.80
2019-01-29T10:53:18.413Z,24.70
2019-01-29T10:54:18.378Z,25.30
2019-01-29T10:55:18.374Z,22.00
2019-01-29T10:56:18.365Z,24.00
2019-01-29T10:57:18.339Z,29.70
2019-01-29T10:58:18.326Z,31.50
2019-01-29T10:59:18.333Z,27.30
2019-01-29T11:00:18.308Z,25.10
2019-01-29T11:01:18.300Z,24.70
2019-01-29T11:02:18.293Z,26.10
2019-01-29T11:03:18.282Z,27.90
2019-01-29T11:04:18.289Z,31.30
2019-01-29T11:05:18.256Z,26.70
2019-01-29T11:06:18.240Z,28.90
2019-01-29T11:07:18.277Z,29.70
2019-01-29T11:08:18.222Z,26.30
2019-01-29T11:09:25.444Z,26.50
2019-01-29T11:10:19.206Z,29.60
2019-01-29T11:11:18.189Z,23.60
2019-01-29T11:12:18.181Z,25.90
2019-01-29T11:13:18.172Z,20.50
2019-01-29T11:14:18.163Z,20.20
2019-01-29T11:15:18.175Z,21.50
2019-01-29T11:16:18.159Z,26.50
2019-01-29T11:17:18.124Z,25.10
2019-01-29T11:18:18.115Z,23.50
2019-01-29T11:19:18.435Z,24.70
2019-01-29T11:20:18.117Z,25.80
2019-01-29T11:21:18.106Z,22.50
2019-01-29T11:22:18.075Z,23.60
2019-01-29T11:23:18.073Z,28.20
2019-01-29T11:24:18.049Z,22.80
2019-01-29T11:25:18.057Z,26.50
2019-01-29T11:26:18.074Z,24.90
2019-01-29T11:27:18.021Z,23.40
2019-01-29T11:28:18.015Z,23.50
2019-01-29T11:29:18.005Z,25.10
2019-01-29T11:30:17.986Z,27.20
2019-01-29T11:31:17.995Z,22.90
2019-01-29T11:32:17.965Z,29.30
2019-01-29T11:33:17.960Z,28.20
2019-01-29T11:34:17.946Z,24.50
2019-01-29T11:35:17.935Z,25.80
2019-01-29T11:36:17.944Z,23.00
2019-01-29T11:37:17.908Z,24.80
2019-01-29T11:38:17.913Z,28.70
2019-01-29T11:39:17.893Z,25.10
2019-01-29T11:40:17.883Z,22.70
2019-01-29T11:41:19.744Z,21.80
2019-01-29T11:42:17.858Z,21.00
2019-01-29T11:43:17.855Z,22.70
2019-01-29T11:44:17.833Z,24.50
2019-01-29T11:45:17.830Z,27.10
2019-01-29T11:46:17.836Z,24.60
2019-01-29T11:47:17.810Z,23.70
2019-01-29T11:48:17.801Z,21.00
2019-01-29T11:49:17.790Z,24.10
2019-01-29T11:50:17.775Z,23.90
2019-01-29T11:51:17.788Z,21.20
2019-01-29T11:52:17.765Z,24.60
2019-01-29T11:53:17.744Z,20.80
2019-01-29T11:54:17.827Z,24.40
2019-01-29T11:55:17.746Z,26.70
2019-01-29T11:56:17.734Z,25.60
2019-01-29T11:57:17.701Z,2.50
2019-01-29T11:58:17.701Z,26.70
2019-01-29T11:59:17.678Z,28.00
2019-01-29T12:00:17.670Z,25.80
2019-01-29T12:01:17.652Z,25.40
2019-01-29T12:02:17.662Z,25.80
2019-01-29T12:03:17.634Z,25.10
2019-01-29T12:04:17.648Z,21.60
2019-01-29T12:05:17.617Z,24.50
2019-01-29T12:06:17.623Z,22.70
2019-01-29T12:07:19.521Z,25.50
2019-01-29T12:08:17.584Z,23.10
2019-01-29T12:09:17.567Z,23.90
2019-01-29T12:10:17.561Z,21.60
2019-01-29T12:11:17.551Z,19.20
2019-01-29T12:12:17.562Z,23.20
2019-01-29T12:13:17.529Z,20.10
2019-01-29T12:14:17.520Z,18.60
2019-01-29T12:15:17.505Z,21.80
2019-01-29T12:16:19.486Z,22.70
2019-01-29T12:17:17.513Z,19.60
2019-01-29T12:18:17.474Z,21.90
2019-01-29T12:19:17.467Z,22.50
2019-01-29T12:20:17.455Z,19.90
2019-01-29T12:21:17.449Z,23.00
2019-01-29T12:22:17.433Z,19.90
2019-01-29T12:23:17.450Z,20.40
2019-01-29T12:24:17.421Z,26.30
2019-01-29T12:25:17.408Z,22.20
2019-01-29T12:26:17.387Z,22.40
2019-01-29T12:27:17.384Z,27.10
2019-01-29T12:28:17.387Z,24.50
2019-01-29T12:29:17.370Z,20.10
2019-01-29T12:30:17.346Z,17.60
2019-01-29T12:31:17.332Z,20.00
2019-01-29T12:32:17.329Z,20.30
2019-01-29T12:33:17.314Z,19.40
2019-01-29T12:34:17.317Z,22.20
2019-01-29T12:35:17.305Z,21.50
2019-01-29T12:36:17.276Z,15.10
2019-01-29T12:37:17.301Z,18.30
2019-01-29T12:38:17.301Z,17.90
2019-01-29T12:39:17.248Z,17.10
2019-01-29T12:40:17.249Z,18.20
2019-01-29T12:41:17.228Z,20.50
2019-01-29T12:42:17.217Z,21.70
2019-01-29T12:43:17.207Z,21.20
2019-01-29T12:44:17.244Z,19.10
2019-01-29T12:45:17.208Z,19.00
2019-01-29T12:46:17.174Z,18.80
2019-01-29T12:47:17.162Z,23.30
2019-01-29T12:48:17.150Z,20.00
2019-01-29T12:49:17.146Z,24.00
2019-01-29T12:50:17.135Z,19.70
2019-01-29T12:51:17.140Z,23.40
2019-01-29T12:52:17.158Z,24.10